Thursday, September 3, 2015, 9:29 PM EDT

KLNS, Lancaster Airport

Location: Lititz, PA, United States Lat: 40.117
Local Time: 9:29 PM EDT ( 1:29 GMT) Lon: -76.3
Time Zone: US/Eastern Elev: 403 ft

Show me the last for .
Show Decoded

2015-09-03 20:53 METAR KLNS 040053Z 35006KT 10SM SCT075 27/19 A2990 RMK AO2 SLP121 T02670194 =
2015-09-03 19:53 METAR KLNS 032353Z 31004KT 10SM CLR 28/19 A2988 RMK AO2 SLP113 T02830194 10333
                 20272 53008 =
2015-09-03 18:53 METAR KLNS 032253Z 31003KT 10SM CLR 30/18 A2985 RMK AO2 LTG DSNT N SLP106
                 T03000178 =
2015-09-03 17:53 METAR KLNS 032153Z 34005KT 10SM CLR 32/17 A2985 RMK AO2 SLP106 T03220172 =
2015-09-03 16:53 METAR KLNS 032053Z 34003KT 10SM CLR 32/18 A2985 RMK AO2 SLP105 T03220178 56015 =
2015-09-03 15:53 METAR KLNS 031953Z VRB04KT 10SM CLR 32/18 A2987 RMK AO2 SLP109 T03220178 =
2015-09-03 14:53 METAR KLNS 031853Z VRB05KT 10SM FEW055 32/18 A2988 RMK AO2 SLP114 T03170178 =
2015-09-03 13:53 METAR KLNS 031753Z VRB06KT 10SM CLR 32/18 A2990 RMK AO2 SLP119 T03220178 10322
                 20217 56013 =
2015-09-03 12:53 METAR KLNS 031653Z 33005KT 9SM CLR 31/19 A2991 RMK AO2 SLP123 T03110189 =
2015-09-03 11:53 METAR KLNS 031553Z 04007KT 8SM CLR 30/20 A2992 RMK AO2 SLP128 T03000200 =
2015-09-03 10:53 METAR KLNS 031453Z 33007KT 7SM CLR 29/20 A2993 RMK AO2 SLP133 T02890200 50001 =
2015-09-03 09:53 METAR KLNS 031353Z 33004KT 6SM HZ CLR 27/20 A2994 RMK AO2 SLP135 T02720200 =
2015-09-03 08:53 METAR KLNS 031253Z 29003KT 3SM HZ CLR 23/19 A2993 RMK AO2 SLP132 T02330194 =
2015-09-03 07:53 METAR KLNS 031153Z 00000KT 3SM BR CLR 22/19 A2993 RMK AO2 SLP132 T02170194 10217
                 20189 52007 =
2015-09-03 06:53 METAR KLNS 031053Z 28003KT 3SM BR CLR 19/18 A2993 RMK AO2 SLP131 T01940183 =
2015-09-03 06:30 METAR KLNS 031030Z 00000KT 3SM BR CLR 20/19 A2992 RMK AO2 T02000189 =
2015-09-03 05:53 METAR KLNS 030953Z 30003KT 4SM BR CLR 20/19 A2991 RMK AO2 SLP125 T02000189 =
2015-09-03 04:53 METAR KLNS 030853Z 27005KT 4SM BR CLR 20/19 A2991 RMK AO2 SLP124 T02000189 55004
                 =
2015-09-03 03:53 METAR KLNS 030753Z 28003KT 4SM BR CLR 21/19 A2990 RMK AO2 SLP122 T02110194 =
2015-09-03 02:53 METAR KLNS 030653Z 00000KT 4SM BR CLR 21/19 A2990 RMK AO2 SLP120 T02110194 =
2015-09-03 01:53 METAR KLNS 030553Z 26005KT 5SM BR CLR 22/20 A2992 RMK AO2 SLP127 T02170200 10283
                 20211 58008 =
2015-09-03 00:53 METAR KLNS 030453Z 27006KT 6SM BR CLR 22/20 A2993 RMK AO2 SLP133 T02220200
                 403170172 =
2015-09-02 22:53 METAR KLNS 030253Z 28005KT 7SM CLR 23/19 A2994 RMK AO2 SLP136 T02280189 53007 =
2015-09-02 21:53 METAR KLNS 030153Z 28004KT 7SM CLR 24/19 A2993 RMK AO2 SLP132 T02440189 =

Support USWX by starting your Amazon purchase here.